Green Bay (GRB/KGRB)

Map

Information

Location
Green Bay, WI
Local Time
22:42 / 10:42 pm
GMT Time
03:42 / 3:42 am
Gates
No FAA reported delays
METAR KGRB 260253Z 11005KT 10SM CLR 14/12 A2975 RMK AO2 SLP076 T01440122 53025
TAF KGRB 252331Z 2600/2624 04009G14KT P6SM FEW050 FEW070 FM260300 09004KT P6SM FEW080 FM260900 00000KT 5SM BR FEW090 FM261000 00000KT 1 1/2SM BR FEW050 BKN090 FM261300 VRB03KT P6SM SCT050 BKN070 FM261700 14006KT P6SM BKN050 FM262100 17007KT P6SM VCSH BKN040